Time;durP1;ratioP1;P1;durP2;ratioP2;P2;SDS_P1;SDS_P2;PMS_P1;PMS_P2;Temp;Humidity;BMP_temperature;BMP_pressure;BME280_temperature;BME280_humidity;BME280_pressure;Samples;Min_cycle;Max_cycle;Signal;HPM_P1;HPM_P2
2023/04/26 00:02:17;;;;;;;5.88;3.05;;;6.60;99.90;;;;;;5050818;28;20080;-49
2023/04/26 00:04:43;;;;;;;5.50;3.33;;;6.60;99.90;;;;;;5050946;28;20029;-50
2023/04/26 00:07:08;;;;;;;8.70;2.85;;;6.60;99.90;;;;;;5050905;28;20033;-50
2023/04/26 00:09:34;;;;;;;3.83;2.92;;;6.60;99.90;;;;;;5050889;28;20028;-51
2023/04/26 00:12:00;;;;;;;3.88;2.67;;;6.60;99.90;;;;;;5050613;28;20496;-51
2023/04/26 00:14:25;;;;;;;7.78;3.35;;;6.60;99.90;;;;;;5050801;28;20480;-51
2023/04/26 00:16:51;;;;;;;5.63;3.83;;;6.60;99.90;;;;;;5082695;22;20048;-45
2023/04/26 00:19:17;;;;;;;10.73;3.00;;;6.60;99.90;;;;;;5053683;28;20320;-42
2023/04/26 00:21:42;;;;;;;6.63;3.60;;;6.60;99.90;;;;;;5072600;28;20020;-44
2023/04/26 00:24:08;;;;;;;12.27;4.97;;;6.50;99.90;;;;;;5055672;28;20031;-47
2023/04/26 00:26:34;;;;;;;13.50;4.22;;;6.50;99.90;;;;;;5073200;28;20017;-43
2023/04/26 00:29:08;;;;;;;11.27;3.17;;;6.50;99.90;;;;;;5073429;28;20032;-45
2023/04/26 00:31:34;;;;;;;12.63;3.97;;;6.50;99.90;;;;;;5073538;28;20032;-47
2023/04/26 00:33:59;;;;;;;8.80;3.40;;;6.50;99.90;;;;;;5073501;28;20028;-43
2023/04/26 00:36:25;;;;;;;9.90;3.85;;;6.40;99.90;;;;;;5073406;28;20393;-44
2023/04/26 00:38:51;;;;;;;9.35;4.88;;;6.40;99.90;;;;;;5073340;28;20021;-45
2023/04/26 00:41:16;;;;;;;14.43;7.93;;;6.40;99.90;;;;;;5073019;28;20050;-42
2023/04/26 00:43:42;;;;;;;9.05;4.55;;;6.40;99.90;;;;;;5073086;28;20016;-44
2023/04/26 00:46:11;;;;;;;10.07;3.80;;;6.50;99.90;;;;;;5072988;28;20597;-46
2023/04/26 00:48:37;;;;;;;4.95;3.30;;;6.50;99.90;;;;;;5073856;28;20396;-43
2023/04/26 00:51:04;;;;;;;4.07;3.42;;;6.50;99.90;;;;;;5073225;28;20028;-44
2023/04/26 00:53:31;;;;;;;4.38;2.95;;;6.50;99.90;;;;;;5073496;28;20111;-45
2023/04/26 00:55:57;;;;;;;7.65;3.38;;;6.50;99.90;;;;;;5072908;28;20029;-48
2023/04/26 00:58:24;;;;;;;7.97;3.00;;;6.50;99.90;;;;;;5072865;28;20484;-48
2023/04/26 01:00:50;;;;;;;9.05;3.42;;;6.50;99.90;;;;;;5072916;28;20439;-45
2023/04/26 01:03:16;;;;;;;6.45;2.90;;;6.40;99.90;;;;;;5072951;28;20021;-50
2023/04/26 01:05:42;;;;;;;5.57;3.30;;;6.40;99.90;;;;;;5072789;28;20032;-43
2023/04/26 01:08:08;;;;;;;7.88;3.85;;;6.40;99.90;;;;;;5072733;28;20420;-47
2023/04/26 01:10:34;;;;;;;8.80;3.58;;;6.20;99.90;;;;;;5072737;28;20027;-49
2023/04/26 01:13:00;;;;;;;6.07;3.95;;;6.10;99.90;;;;;;5072748;28;20021;-44
2023/04/26 01:15:29;;;;;;;7.72;3.90;;;6.00;99.90;;;;;;5072591;28;20032;-49
2023/04/26 01:17:58;;;;;;;5.22;3.22;;;5.90;99.90;;;;;;5072290;28;20028;-49
2023/04/26 01:20:24;;;;;;;8.45;4.43;;;5.80;99.90;;;;;;5072488;28;20077;-44
2023/04/26 01:22:51;;;;;;;13.68;4.72;;;5.80;99.90;;;;;;5072545;28;20020;-45
2023/04/26 01:25:17;;;;;;;11.63;3.75;;;5.70;99.90;;;;;;5072384;28;20025;-46
2023/04/26 01:27:42;;;;;;;6.93;3.50;;;5.60;99.90;;;;;;5072254;28;20480;-45
2023/04/26 01:30:08;;;;;;;9.25;5.25;;;5.50;99.90;;;;;;5072675;28;20106;-47
2023/04/26 01:32:34;;;;;;;5.97;4.03;;;5.40;99.90;;;;;;5072310;28;20028;-47
2023/04/26 01:35:02;;;;;;;12.40;4.65;;;5.40;99.90;;;;;;5071945;28;20028;-47
2023/04/26 01:37:28;;;;;;;9.00;3.95;;;5.30;99.90;;;;;;5072043;28;20031;-44
2023/04/26 01:39:53;;;;;;;5.28;3.53;;;5.20;99.90;;;;;;5072089;28;20024;-46
2023/04/26 01:42:19;;;;;;;6.63;4.60;;;5.10;99.90;;;;;;5071962;28;20477;-45
2023/04/26 01:44:45;;;;;;;5.13;3.80;;;5.10;99.90;;;;;;5072059;28;20070;-43
2023/04/26 01:47:10;;;;;;;10.57;4.10;;;5.10;99.90;;;;;;5071972;28;20028;-46
2023/04/26 01:49:36;;;;;;;8.57;3.88;;;5.00;99.90;;;;;;5071928;28;20025;-44
2023/04/26 01:52:01;;;;;;;7.75;4.15;;;5.10;99.90;;;;;;5071833;28;20488;-47
2023/04/26 01:54:27;;;;;;;9.40;4.63;;;5.00;99.90;;;;;;5072298;28;20082;-45
2023/04/26 01:56:52;;;;;;;6.28;4.22;;;5.00;99.90;;;;;;5071942;28;20028;-45
2023/04/26 01:59:18;;;;;;;10.05;4.25;;;5.00;99.90;;;;;;5071805;28;20052;-47
2023/04/26 02:01:43;;;;;;;15.00;4.25;;;4.90;99.90;;;;;;5071887;28;20025;-48
2023/04/26 02:04:09;;;;;;;7.60;4.00;;;4.90;99.90;;;;;;5071824;28;20445;-44
2023/04/26 02:06:36;;;;;;;7.80;4.68;;;4.90;99.90;;;;;;5071517;28;20535;-48
2023/04/26 02:09:02;;;;;;;8.18;3.72;;;4.90;99.90;;;;;;5071085;28;20035;-47
2023/04/26 02:11:28;;;;;;;6.70;4.13;;;4.90;99.90;;;;;;5053825;28;20029;-47
2023/04/26 02:13:53;;;;;;;7.18;4.45;;;5.00;99.90;;;;;;5071816;28;20017;-44
2023/04/26 02:16:20;;;;;;;7.15;4.05;;;4.90;99.90;;;;;;5071336;28;20024;-40
2023/04/26 02:18:46;;;;;;;7.72;4.03;;;4.90;99.90;;;;;;5071404;28;20020;-40
2023/04/26 02:21:11;;;;;;;11.27;4.85;;;4.80;99.90;;;;;;5071658;28;20025;-45
2023/04/26 02:23:37;;;;;;;8.90;4.85;;;4.80;99.90;;;;;;5071970;28;20147;-44
2023/04/26 02:26:03;;;;;;;9.82;5.10;;;4.80;99.90;;;;;;5071420;28;20037;-43
2023/04/26 02:28:29;;;;;;;6.25;4.60;;;4.80;99.90;;;;;;5071521;28;20025;-43
2023/04/26 02:30:57;;;;;;;7.22;4.50;;;4.80;99.90;;;;;;5071774;28;20039;-43
2023/04/26 02:33:23;;;;;;;7.93;4.70;;;4.80;99.90;;;;;;5071315;28;20568;-45
2023/04/26 02:35:49;;;;;;;7.57;4.22;;;4.80;99.90;;;;;;5071193;28;20024;-45
2023/04/26 02:38:14;;;;;;;8.18;4.97;;;4.80;99.90;;;;;;5071369;28;20472;-44
2023/04/26 02:40:40;;;;;;;7.00;5.25;;;4.80;99.90;;;;;;5071417;28;20029;-44
2023/04/26 02:43:06;;;;;;;5.45;4.40;;;4.80;99.90;;;;;;5071288;28;20028;-45
2023/04/26 02:45:32;;;;;;;11.40;4.93;;;4.70;99.90;;;;;;5071087;28;20048;-46
2023/04/26 02:47:58;;;;;;;7.63;5.10;;;4.70;99.90;;;;;;5071366;28;20098;-46
2023/04/26 02:50:23;;;;;;;8.05;4.97;;;4.70;99.90;;;;;;5071598;28;20024;-44
2023/04/26 02:52:49;;;;;;;8.57;4.90;;;4.60;99.90;;;;;;5071722;28;20171;-44
2023/04/26 02:55:14;;;;;;;6.90;5.30;;;4.60;99.90;;;;;;5071193;28;20031;-48
2023/04/26 02:57:40;;;;;;;13.05;6.30;;;4.60;99.90;;;;;;5071345;28;20243;-48
2023/04/26 03:00:06;;;;;;;9.30;4.88;;;4.50;99.90;;;;;;5071180;28;20046;-48
2023/04/26 03:02:32;;;;;;;8.18;5.15;;;4.50;99.90;;;;;;5071358;28;20021;-47
2023/04/26 03:04:58;;;;;;;8.23;4.97;;;4.40;99.90;;;;;;5071074;28;20036;-44
2023/04/26 03:07:23;;;;;;;5.57;5.00;;;4.40;99.90;;;;;;5071372;28;20024;-46
2023/04/26 03:09:49;;;;;;;10.68;4.90;;;4.40;99.90;;;;;;5071135;28;20020;-46
2023/04/26 03:12:15;;;;;;;7.25;4.35;;;4.40;99.90;;;;;;5071020;28;20032;-46
2023/04/26 03:14:40;;;;;;;7.93;5.00;;;4.30;99.90;;;;;;5052884;28;20028;-46
2023/04/26 03:17:06;;;;;;;9.40;4.80;;;4.30;99.90;;;;;;5070753;28;20048;-44
2023/04/26 03:19:31;;;;;;;6.95;5.15;;;4.30;99.90;;;;;;5071027;28;20480;-44
2023/04/26 03:21:57;;;;;;;5.15;4.63;;;4.30;99.90;;;;;;5074747;28;20060;-45
2023/04/26 03:24:22;;;;;;;8.43;4.68;;;4.30;99.90;;;;;;5075128;28;20402;-44
2023/04/26 03:26:48;;;;;;;12.07;6.13;;;4.30;99.90;;;;;;5074572;28;20020;-44
2023/04/26 03:29:14;;;;;;;9.30;4.78;;;4.30;99.90;;;;;;5074792;28;20020;-46
2023/04/26 03:31:40;;;;;;;9.82;4.80;;;4.30;99.90;;;;;;5074745;28;20369;-44
2023/04/26 03:34:06;;;;;;;8.30;4.35;;;4.30;99.90;;;;;;5074359;28;20035;-44
2023/04/26 03:36:32;;;;;;;10.18;5.30;;;4.30;99.90;;;;;;5074351;28;20184;-47
2023/04/26 03:38:58;;;;;;;5.20;4.70;;;4.30;99.90;;;;;;5074470;28;20024;-48
2023/04/26 03:41:23;;;;;;;9.85;5.00;;;4.20;99.90;;;;;;5074231;28;20459;-44
2023/04/26 03:43:49;;;;;;;10.38;5.07;;;4.10;99.90;;;;;;5074453;28;20399;-43
2023/04/26 03:46:15;;;;;;;8.55;4.75;;;4.10;99.90;;;;;;5074260;28;20464;-43
2023/04/26 03:48:40;;;;;;;9.07;4.68;;;4.10;99.90;;;;;;5056411;28;20024;-44
2023/04/26 03:51:06;;;;;;;9.57;4.97;;;4.10;99.90;;;;;;5074174;28;20402;-46
2023/04/26 03:53:31;;;;;;;5.68;4.88;;;4.10;99.90;;;;;;5074350;28;20028;-45
2023/04/26 03:55:57;;;;;;;11.15;5.60;;;4.00;99.90;;;;;;5073853;28;20036;-44
2023/04/26 03:58:24;;;;;;;6.18;5.55;;;4.00;99.90;;;;;;5074477;28;20025;-47
2023/04/26 04:00:50;;;;;;;7.50;5.88;;;4.00;99.90;;;;;;5074213;28;20055;-45
2023/04/26 04:03:15;;;;;;;7.65;4.90;;;3.90;99.90;;;;;;5074462;28;20052;-45
2023/04/26 04:05:41;;;;;;;9.82;5.05;;;3.90;99.90;;;;;;5073919;28;20480;-43
2023/04/26 04:08:06;;;;;;;11.77;5.13;;;3.90;99.90;;;;;;5039371;28;20033;-45
2023/04/26 04:10:32;;;;;;;7.35;4.72;;;4.00;99.90;;;;;;5056022;28;20032;-43
2023/04/26 04:12:58;;;;;;;10.68;5.10;;;4.00;99.90;;;;;;5073781;28;20497;-44
2023/04/26 04:15:23;;;;;;;10.88;4.63;;;3.90;99.90;;;;;;5073792;28;20402;-45
2023/04/26 04:17:49;;;;;;;10.10;5.15;;;4.00;99.90;;;;;;5073465;28;20043;-46
2023/04/26 04:20:15;;;;;;;13.85;5.80;;;3.90;99.90;;;;;;5073677;28;20028;-43
2023/04/26 04:22:40;;;;;;;11.57;5.40;;;3.90;99.90;;;;;;5073686;28;20029;-44
2023/04/26 04:25:09;;;;;;;9.43;4.10;;;3.90;99.90;;;;;;5073690;28;20028;-45
2023/04/26 04:27:38;;;;;;;10.18;4.78;;;4.00;99.90;;;;;;5073649;28;20537;-44
2023/04/26 04:30:06;;;;;;;9.75;5.35;;;4.00;99.90;;;;;;5073914;28;20024;-44
2023/04/26 04:32:31;;;;;;;9.68;5.60;;;4.00;99.90;;;;;;5073094;28;20024;-43
2023/04/26 04:34:57;;;;;;;8.55;4.97;;;4.10;99.90;;;;;;5073497;28;20353;-44
2023/04/26 04:37:24;;;;;;;12.85;4.15;;;4.00;99.90;;;;;;5073512;28;20027;-42
2023/04/26 04:39:51;;;;;;;9.13;4.30;;;4.00;99.90;;;;;;5073542;28;20434;-44
2023/04/26 04:42:17;;;;;;;12.23;5.18;;;4.00;99.90;;;;;;5073470;28;20052;-44
2023/04/26 04:44:42;;;;;;;8.35;4.28;;;3.90;99.90;;;;;;5073417;28;20016;-46
2023/04/26 04:47:08;;;;;;;6.30;4.18;;;3.90;99.90;;;;;;5073913;28;20028;-42
2023/04/26 04:49:33;;;;;;;9.00;4.20;;;4.00;99.90;;;;;;5073779;28;20037;-43
2023/04/26 04:51:59;;;;;;;5.05;4.47;;;4.10;99.90;;;;;;5073299;28;20024;-43
2023/04/26 04:54:24;;;;;;;5.97;4.03;;;4.30;99.90;;;;;;5073497;28;20032;-40
2023/04/26 04:56:50;;;;;;;8.32;4.65;;;4.70;99.90;;;;;;5073226;28;20033;-44
2023/04/26 04:59:15;;;;;;;6.07;4.10;;;5.30;99.90;;;;;;5073149;28;20091;-45
2023/04/26 05:01:41;;;;;;;6.10;4.07;;;6.00;99.90;;;;;;5073117;28;20475;-46
2023/04/26 05:04:06;;;;;;;8.98;3.70;;;6.80;99.90;;;;;;5072925;28;20024;-44
2023/04/26 05:06:32;;;;;;;8.35;3.95;;;7.60;99.90;;;;;;5072619;28;20028;-45
2023/04/26 05:08:58;;;;;;;3.55;2.97;;;8.20;99.90;;;;;;5073091;28;20029;-45
2023/04/26 05:11:24;;;;;;;7.93;3.90;;;8.80;99.90;;;;;;5054731;28;20028;-44
2023/04/26 05:13:50;;;;;;;5.03;3.60;;;9.00;99.90;;;;;;5072671;28;20040;-45
2023/04/26 05:16:15;;;;;;;10.10;4.20;;;9.40;99.90;;;;;;5072314;28;20028;-47
2023/04/26 05:18:41;;;;;;;3.65;3.08;;;9.80;99.90;;;;;;5054444;28;20400;-45
2023/04/26 05:21:07;;;;;;;6.55;3.45;;;10.20;99.90;;;;;;5072410;28;20028;-44
2023/04/26 05:23:33;;;;;;;7.13;3.03;;;10.60;99.90;;;;;;5072428;28;20029;-42
2023/04/26 05:26:05;;;;;;;3.78;3.25;;;11.50;99.90;;;;;;5072361;28;20423;-44
2023/04/26 05:28:31;;;;;;;7.32;4.20;;;11.50;99.90;;;;;;5072460;28;20070;-47
2023/04/26 05:30:58;;;;;;;7.25;3.22;;;12.20;99.90;;;;;;5072174;28;20145;-44
2023/04/26 05:33:23;;;;;;;6.43;3.63;;;12.60;98.70;;;;;;5072236;28;20066;-44
2023/04/26 05:35:49;;;;;;;6.80;3.67;;;13.20;97.70;;;;;;5072520;28;20551;-44
2023/04/26 05:38:15;;;;;;;5.97;3.40;;;13.70;96.90;;;;;;5072476;28;20021;-46
2023/04/26 05:40:40;;;;;;;5.70;3.08;;;14.20;96.00;;;;;;5054397;28;20026;-45
2023/04/26 05:43:07;;;;;;;8.80;4.30;;;14.70;95.30;;;;;;5071663;28;20024;-45
2023/04/26 05:45:32;;;;;;;12.75;5.53;;;14.80;94.90;;;;;;5053251;28;20528;-46
2023/04/26 05:47:58;;;;;;;7.35;5.93;;;15.60;93.20;;;;;;5072153;28;20120;-47
2023/04/26 05:50:23;;;;;;;9.90;5.18;;;15.80;92.60;;;;;;5054153;28;20028;-47
2023/04/26 05:52:49;;;;;;;8.38;5.40;;;16.10;92.50;;;;;;5071708;28;20028;-46
2023/04/26 05:55:14;;;;;;;6.43;4.13;;;16.50;91.70;;;;;;5071098;28;20036;-44
2023/04/26 05:57:40;;;;;;;10.05;4.13;;;17.10;91.20;;;;;;5072041;28;20098;-44
2023/04/26 06:00:08;;;;;;;8.02;3.75;;;16.90;90.40;;;;;;5071511;28;20055;-44
2023/04/26 06:02:34;;;;;;;9.02;4.13;;;17.40;89.40;;;;;;5071580;28;20047;-46
2023/04/26 06:04:59;;;;;;;7.95;3.50;;;17.30;89.30;;;;;;5075405;28;20024;-48
2023/04/26 06:07:25;;;;;;;9.65;4.20;;;17.90;88.60;;;;;;5080730;28;20550;-46
2023/04/26 06:09:51;;;;;;;8.82;3.53;;;18.10;86.70;;;;;;5070691;28;20035;-42
2023/04/26 06:12:16;;;;;;;5.35;3.30;;;18.40;84.00;;;;;;5051430;28;20036;-45
2023/04/26 06:14:42;;;;;;;9.77;3.60;;;18.60;83.40;;;;;;5070535;28;20093;-48
2023/04/26 06:17:08;;;;;;;8.55;3.97;;;19.10;81.80;;;;;;5094677;22;20524;-55
2023/04/26 06:19:33;;;;;;;6.63;3.33;;;19.20;79.70;;;;;;5050044;28;20023;-55
2023/04/26 06:21:59;;;;;;;7.97;3.10;;;18.80;79.70;;;;;;5049618;28;20029;-56
2023/04/26 06:24:25;;;;;;;8.98;3.20;;;18.30;79.60;;;;;;5051506;28;20025;-52
2023/04/26 06:26:50;;;;;;;9.88;3.95;;;19.10;79.80;;;;;;5033370;28;20052;-51
2023/04/26 06:29:16;;;;;;;8.23;4.10;;;19.20;78.60;;;;;;5033416;28;20512;-57
2023/04/26 06:31:42;;;;;;;14.32;4.65;;;19.10;78.10;;;;;;5069308;28;20508;-56
2023/04/26 06:34:08;;;;;;;9.65;4.03;;;19.40;77.80;;;;;;5048342;28;20061;-54
2023/04/26 06:36:33;;;;;;;11.88;3.20;;;19.50;77.20;;;;;;5050586;28;20108;-55
2023/04/26 06:38:59;;;;;;;7.03;3.47;;;19.30;77.90;;;;;;5051025;28;20142;-54
2023/04/26 06:41:24;;;;;;;9.30;3.22;;;19.30;76.50;;;;;;5050823;28;20033;-54
2023/04/26 06:43:50;;;;;;;10.52;3.95;;;18.90;77.20;;;;;;5050956;28;20443;-52
2023/04/26 06:46:16;;;;;;;8.98;3.55;;;19.00;77.90;;;;;;5051201;28;20036;-52
2023/04/26 06:48:41;;;;;;;7.20;3.60;;;19.00;76.90;;;;;;5033264;28;20029;-56
2023/04/26 06:51:08;;;;;;;7.93;3.55;;;18.10;77.00;;;;;;5050982;28;20017;-55
2023/04/26 06:53:34;;;;;;;10.43;3.72;;;17.50;77.80;;;;;;5033125;28;20017;-55
2023/04/26 06:56:00;;;;;;;7.50;3.60;;;17.00;80.40;;;;;;5053163;28;20043;-54
2023/04/26 06:58:26;;;;;;;5.78;3.20;;;17.00;80.00;;;;;;5055040;28;20096;-52
2023/04/26 07:00:51;;;;;;;8.18;4.45;;;17.30;79.60;;;;;;5037389;28;20119;-55
2023/04/26 07:03:17;;;;;;;7.45;3.47;;;17.60;78.50;;;;;;5055237;28;20027;-51
2023/04/26 07:05:42;;;;;;;5.93;3.38;;;17.70;79.40;;;;;;5054955;28;20032;-53
2023/04/26 07:08:08;;;;;;;6.13;3.38;;;17.20;80.30;;;;;;5055098;28;20064;-55
2023/04/26 07:10:34;;;;;;;7.00;3.53;;;15.90;81.20;;;;;;5054965;28;20035;-54
2023/04/26 07:12:59;;;;;;;7.68;3.15;;;14.60;85.10;;;;;;5054876;28;20024;-51
2023/04/26 07:15:25;;;;;;;9.82;3.22;;;15.00;87.00;;;;;;5054628;28;20045;-54
2023/04/26 07:17:50;;;;;;;6.50;2.67;;;15.00;84.70;;;;;;5054475;28;20033;-56
2023/04/26 07:20:19;;;;;;;11.10;3.35;;;14.70;86.70;;;;;;5036435;28;20108;-54
2023/04/26 07:22:45;;;;;;;6.00;2.50;;;14.50;86.80;;;;;;5054386;28;20017;-51
2023/04/26 07:25:11;;;;;;;4.03;2.50;;;15.00;85.80;;;;;;5054298;28;20060;-51
2023/04/26 07:27:36;;;;;;;7.45;2.10;;;15.70;84.70;;;;;;5054342;28;20029;-55
2023/04/26 07:30:02;;;;;;;6.50;2.45;;;16.60;82.50;;;;;;5054364;28;20017;-55
2023/04/26 07:32:28;;;;;;;9.30;2.90;;;17.30;81.00;;;;;;5054272;28;20021;-52
2023/04/26 07:34:53;;;;;;;5.35;2.67;;;17.70;79.20;;;;;;5054018;28;20040;-54
2023/04/26 07:37:19;;;;;;;4.07;2.50;;;15.90;79.90;;;;;;5054332;28;20485;-48
2023/04/26 07:39:45;;;;;;;6.40;2.85;;;15.60;82.80;;;;;;5054167;28;20060;-53
2023/04/26 07:42:10;;;;;;;4.57;2.97;;;15.40;82.90;;;;;;5054034;28;20036;-50
2023/04/26 07:44:36;;;;;;;8.35;2.72;;;14.60;85.60;;;;;;5054445;28;20025;-50
2023/04/26 07:47:01;;;;;;;8.90;2.90;;;15.30;85.00;;;;;;5054438;28;20140;-52
2023/04/26 07:49:27;;;;;;;4.45;2.65;;;15.60;81.60;;;;;;5054004;28;20400;-53
2023/04/26 07:51:54;;;;;;;5.57;2.60;;;15.60;83.80;;;;;;5054020;28;20476;-53
2023/04/26 07:54:19;;;;;;;7.15;2.92;;;16.10;83.20;;;;;;5054030;28;20484;-50
2023/04/26 07:56:45;;;;;;;5.80;3.00;;;16.80;82.10;;;;;;5053557;28;20071;-53
2023/04/26 07:59:10;;;;;;;8.52;2.78;;;17.30;79.00;;;;;;5036082;28;20029;-54
2023/04/26 08:01:36;;;;;;;14.65;3.10;;;15.80;80.50;;;;;;5053913;28;20097;-54
2023/04/26 08:04:01;;;;;;;5.43;2.80;;;14.00;84.00;;;;;;5035789;28;20025;-51
2023/04/26 08:06:28;;;;;;;7.78;3.10;;;13.70;86.70;;;;;;5035053;28;20017;-53
2023/04/26 08:08:53;;;;;;;14.85;3.15;;;14.30;86.60;;;;;;5035425;28;20043;-53
2023/04/26 08:11:19;;;;;;;7.20;3.17;;;14.50;86.40;;;;;;5053442;28;20025;-49
2023/04/26 08:13:45;;;;;;;8.27;3.67;;;14.60;85.30;;;;;;5053507;28;20029;-53
2023/04/26 08:16:10;;;;;;;7.45;3.30;;;14.30;86.50;;;;;;5053281;28;20028;-56
2023/04/26 08:18:36;;;;;;;6.13;3.10;;;14.20;88.80;;;;;;5053255;28;20029;-50
2023/04/26 08:21:01;;;;;;;8.80;3.75;;;14.70;87.60;;;;;;5053406;28;20040;-54
2023/04/26 08:23:27;;;;;;;10.18;3.30;;;14.90;86.00;;;;;;5035393;28;20504;-55
2023/04/26 08:25:53;;;;;;;5.63;2.70;;;15.80;84.60;;;;;;5053122;28;20024;-54
2023/04/26 08:28:18;;;;;;;5.82;3.22;;;16.70;81.00;;;;;;5053277;28;20025;-54
2023/04/26 08:30:44;;;;;;;5.55;2.80;;;17.60;80.50;;;;;;5053251;28;20025;-54
2023/04/26 08:33:09;;;;;;;7.55;3.25;;;18.20;76.60;;;;;;5053457;28;20025;-55
2023/04/26 08:35:35;;;;;;;7.65;3.00;;;18.50;75.20;;;;;;5053132;28;20126;-57
2023/04/26 08:38:01;;;;;;;14.65;4.28;;;18.80;74.50;;;;;;5053298;28;20033;-52
2023/04/26 08:40:26;;;;;;;9.98;3.35;;;19.30;73.90;;;;;;5053072;28;20024;-55
2023/04/26 08:42:52;;;;;;;6.97;3.40;;;19.60;72.30;;;;;;5035024;28;20075;-53
2023/04/26 08:45:19;;;;;;;5.15;2.72;;;19.60;72.30;;;;;;5053016;28;20019;-55
2023/04/26 08:48:02;;;;;;;5.47;2.60;;;19.60;71.80;;;;;;5053061;28;20443;-56
2023/04/26 08:50:29;;;;;;;9.63;3.38;;;19.50;71.50;;;;;;5052805;28;20460;-54
2023/04/26 08:52:55;;;;;;;6.18;2.90;;;18.90;71.10;;;;;;5053021;28;20052;-52
2023/04/26 08:55:22;;;;;;;8.73;3.50;;;18.10;72.00;;;;;;5051202;28;20465;-50
2023/04/26 08:57:49;;;;;;;6.93;3.60;;;17.00;75.10;;;;;;5052703;28;20447;-53
2023/04/26 09:00:16;;;;;;;4.63;2.95;;;16.60;76.80;;;;;;5052584;28;20025;-51
2023/04/26 09:02:46;;;;;;;9.00;2.97;;;16.50;78.50;;;;;;5052791;28;20036;-53
2023/04/26 09:05:12;;;;;;;9.10;3.53;;;16.20;76.60;;;;;;5052859;28;20238;-54
2023/04/26 09:07:45;;;;;;;9.27;3.10;;;15.90;78.40;;;;;;5051396;28;20029;-52
2023/04/26 09:10:12;;;;;;;4.50;2.80;;;15.60;79.50;;;;;;5052616;28;20031;-52
2023/04/26 09:12:38;;;;;;;7.82;3.40;;;15.60;81.30;;;;;;5052493;28;20071;-52
2023/04/26 09:15:06;;;;;;;10.82;3.33;;;15.80;78.70;;;;;;5052202;28;20024;-53
2023/04/26 09:17:37;;;;;;;7.78;2.67;;;16.10;78.80;;;;;;5052130;28;20036;-52
2023/04/26 09:20:28;;;;;;;4.05;2.75;;;16.20;79.60;;;;;;5052370;28;20017;-53
2023/04/26 09:23:07;;;;;;;10.30;3.15;;;16.20;81.10;;;;;;5052412;28;20025;-54
2023/04/26 09:25:34;;;;;;;4.53;2.75;;;16.30;79.10;;;;;;5052316;28;20072;-54
2023/04/26 09:28:00;;;;;;;5.20;2.65;;;14.90;76.70;;;;;;5052140;28;20496;-55
2023/04/26 09:30:27;;;;;;;5.03;2.33;;;14.10;80.90;;;;;;5052158;28;20028;-54
2023/04/26 09:33:02;;;;;;;9.10;2.90;;;14.10;82.60;;;;;;5052180;28;20083;-54
2023/04/26 09:35:35;;;;;;;8.18;2.78;;;14.00;81.20;;;;;;5052072;28;20108;-50
2023/04/26 09:38:12;;;;;;;9.48;2.38;;;13.80;78.50;;;;;;5052657;28;20029;-55
2023/04/26 09:40:43;;;;;;;8.30;2.50;;;14.10;78.20;;;;;;5052331;28;20028;-55
2023/04/26 09:43:12;;;;;;;8.50;2.63;;;14.40;80.50;;;;;;5052319;28;20362;-55
2023/04/26 09:45:57;;;;;;;8.52;2.28;;;14.70;77.50;;;;;;5051389;28;20108;-55
2023/04/26 09:48:27;;;;;;;5.30;1.93;;;14.80;78.10;;;;;;5050297;28;20043;-55
2023/04/26 09:50:57;;;;;;;6.88;3.15;;;14.80;78.50;;;;;;5049757;28;20020;-50
2023/04/26 09:53:39;;;;;;;6.53;2.50;;;14.60;79.10;;;;;;5049542;28;20055;-56
2023/04/26 09:56:07;;;;;;;6.03;2.55;;;14.60;79.20;;;;;;5033260;28;20033;-57
2023/04/26 09:58:35;;;;;;;9.45;2.78;;;14.50;78.70;;;;;;5051101;28;20017;-57
2023/04/26 10:01:02;;;;;;;4.88;2.38;;;14.20;81.40;;;;;;5051031;28;20068;-55
2023/04/26 10:03:28;;;;;;;10.68;2.72;;;14.30;82.20;;;;;;5050350;28;20032;-56
2023/04/26 10:05:53;;;;;;;4.25;2.63;;;14.50;81.90;;;;;;5051496;28;20033;-55
2023/04/26 10:08:19;;;;;;;6.93;2.80;;;14.80;78.60;;;;;;5051862;28;20111;-53
2023/04/26 10:10:46;;;;;;;4.10;2.47;;;14.70;79.70;;;;;;5033435;28;20017;-55
2023/04/26 10:13:14;;;;;;;8.95;2.63;;;14.40;78.80;;;;;;5049945;28;20032;-55
2023/04/26 10:15:40;;;;;;;4.55;2.40;;;13.60;79.90;;;;;;5051420;28;20027;-52
2023/04/26 10:18:07;;;;;;;5.50;2.70;;;13.20;81.40;;;;;;5051101;28;20029;-52
2023/04/26 10:20:37;;;;;;;8.00;2.55;;;13.00;81.90;;;;;;5051556;28;20017;-56
2023/04/26 10:23:08;;;;;;;8.52;2.45;;;12.80;81.90;;;;;;5051078;28;20021;-55
2023/04/26 10:25:36;;;;;;;7.22;2.70;;;12.90;79.20;;;;;;5051363;28;20027;-55
2023/04/26 10:28:02;;;;;;;5.45;2.67;;;12.80;82.50;;;;;;5051426;28;20035;-56
2023/04/26 10:30:28;;;;;;;7.55;2.58;;;12.90;84.20;;;;;;5050758;28;20032;-54
2023/04/26 10:33:12;;;;;;;4.32;2.20;;;13.00;82.50;;;;;;5050789;28;20029;-55
2023/04/26 10:35:59;;;;;;;6.95;2.65;;;13.20;81.40;;;;;;5031102;28;20060;-51
2023/04/26 10:38:25;;;;;;;4.72;2.40;;;13.50;81.50;;;;;;5049198;28;20036;-54
2023/04/26 10:40:51;;;;;;;9.30;2.78;;;13.50;81.60;;;;;;5031703;28;20064;-52
2023/04/26 10:43:18;;;;;;;6.95;2.33;;;13.70;82.90;;;;;;5035428;28;20036;-56
2023/04/26 10:45:47;;;;;;;11.02;3.95;;;14.00;82.40;;;;;;5056315;28;20027;-55
2023/04/26 10:48:20;;;;;;;4.68;2.83;;;14.10;82.70;;;;;;5054697;28;20009;-55
2023/04/26 10:51:00;;;;;;;6.63;2.80;;;13.90;84.60;;;;;;5059648;28;20021;-57
2023/04/26 10:53:27;;;;;;;7.65;2.70;;;13.60;82.80;;;;;;5054168;28;20029;-59
2023/04/26 10:55:53;;;;;;;9.07;2.80;;;13.60;84.30;;;;;;5050139;28;20477;-56
2023/04/26 10:58:32;;;;;;;7.38;3.03;;;13.70;82.40;;;;;;5050155;28;20107;-56
2023/04/26 11:01:12;;;;;;;7.03;2.60;;;13.70;82.70;;;;;;5050697;28;20036;-53
2023/04/26 11:03:39;;;;;;;34.22;18.73;;;13.70;81.80;;;;;;5049514;28;20017;-57
2023/04/26 11:06:12;;;;;;;6.25;2.75;;;13.70;83.70;;;;;;5050802;28;20531;-58
2023/04/26 11:08:38;;;;;;;12.30;6.30;;;13.50;83.50;;;;;;5050631;28;20033;-54
2023/04/26 11:11:03;;;;;;;7.47;2.92;;;13.60;83.80;;;;;;5050683;28;20142;-54
2023/04/26 11:13:34;;;;;;;7.53;3.58;;;13.70;82.50;;;;;;5043068;28;20064;-57
2023/04/26 11:16:02;;;;;;;7.88;3.97;;;13.70;80.50;;;;;;5013743;28;20021;-54
2023/04/26 11:18:28;;;;;;;10.65;3.13;;;13.80;81.60;;;;;;5030793;28;20091;-55
2023/04/26 11:20:54;;;;;;;6.68;2.03;;;13.70;83.30;;;;;;5034033;28;20100;-59
2023/04/26 11:23:20;;;;;;;7.38;2.92;;;13.60;83.30;;;;;;5030621;28;20036;-59
2023/04/26 11:25:45;;;;;;;8.15;2.50;;;13.80;82.80;;;;;;5045847;28;20522;-55
2023/04/26 11:28:11;;;;;;;4.60;2.15;;;13.90;80.60;;;;;;5066557;28;20090;-58
2023/04/26 11:30:36;;;;;;;9.60;2.70;;;13.60;80.50;;;;;;5057537;28;20013;-57
2023/04/26 11:33:03;;;;;;;7.85;3.28;;;14.00;79.40;;;;;;5055419;28;20040;-57
2023/04/26 11:35:33;;;;;;;5.95;3.42;;;13.80;81.10;;;;;;5057459;28;20029;-56
2023/04/26 11:38:02;;;;;;;10.43;2.90;;;13.60;79.80;;;;;;5039175;28;20032;-56
2023/04/26 11:40:30;;;;;;;6.53;2.28;;;13.50;82.60;;;;;;5056995;28;20052;-56
2023/04/26 11:43:14;;;;;;;5.20;2.65;;;13.50;80.10;;;;;;5059022;28;20055;-55
2023/04/26 11:45:39;;;;;;;10.15;2.65;;;13.70;79.70;;;;;;5040916;28;20032;-54
2023/04/26 11:48:09;;;;;;;7.47;2.45;;;13.50;78.90;;;;;;5040251;28;20026;-49
2023/04/26 11:50:37;;;;;;;7.05;2.70;;;13.50;79.20;;;;;;5038896;28;20086;-56
2023/04/26 11:53:04;;;;;;;6.22;2.67;;;13.00;80.90;;;;;;5038726;28;20021;-52
2023/04/26 11:55:32;;;;;;;5.13;2.70;;;13.10;80.70;;;;;;5039272;28;20449;-57
2023/04/26 11:57:58;;;;;;;8.10;3.00;;;13.10;79.80;;;;;;5038753;28;20081;-55
2023/04/26 12:00:24;;;;;;;7.43;2.45;;;13.00;79.10;;;;;;5040459;28;20022;-57
2023/04/26 12:02:51;;;;;;;4.93;2.30;;;12.70;78.60;;;;;;5040768;28;20021;-57
2023/04/26 12:05:20;;;;;;;5.50;2.22;;;12.70;78.80;;;;;;5022693;28;20053;-56
2023/04/26 12:07:50;;;;;;;3.45;2.30;;;12.80;80.10;;;;;;5038119;28;20049;-57
2023/04/26 12:10:23;;;;;;;7.32;2.35;;;12.90;82.00;;;;;;5039188;28;20055;-54
2023/04/26 12:12:50;;;;;;;3.78;2.72;;;12.80;84.30;;;;;;5037933;28;20026;-56
2023/04/26 12:15:17;;;;;;;5.00;2.38;;;12.90;84.10;;;;;;5039379;28;20489;-56
2023/04/26 12:18:18;;;;;;;3.80;2.33;;;13.00;85.00;;;;;;5064820;22;20476;-49
2023/04/26 12:20:45;;;;;;;7.80;2.53;;;12.90;80.40;;;;;;4970738;28;20046;-50
2023/04/26 12:23:14;;;;;;;6.95;2.58;;;13.00;82.30;;;;;;5037902;28;20033;-49
2023/04/26 12:25:50;;;;;;;6.43;2.90;;;13.10;82.20;;;;;;5035624;28;20124;-51
2023/04/26 12:28:15;;;;;;;7.85;3.22;;;13.20;82.40;;;;;;5035515;28;20400;-54
2023/04/26 12:30:41;;;;;;;8.15;2.67;;;13.10;82.90;;;;;;5052723;28;20035;-51
2023/04/26 12:33:07;;;;;;;4.28;2.47;;;13.10;82.60;;;;;;5052622;28;20108;-54
2023/04/26 12:35:33;;;;;;;12.70;2.97;;;13.00;84.00;;;;;;5034719;28;20041;-56
2023/04/26 12:37:59;;;;;;;6.68;2.38;;;13.10;82.10;;;;;;5052812;28;20389;-50
2023/04/26 12:40:28;;;;;;;8.38;3.22;;;13.20;85.10;;;;;;5052667;28;20518;-51
2023/04/26 12:42:55;;;;;;;9.38;2.92;;;13.40;84.50;;;;;;5053486;28;20029;-54
2023/04/26 12:45:25;;;;;;;4.07;2.65;;;13.30;82.60;;;;;;5052086;28;20033;-54
2023/04/26 12:47:52;;;;;;;7.93;2.60;;;13.40;84.20;;;;;;5044582;28;20395;-53
2023/04/26 12:50:17;;;;;;;4.00;2.72;;;13.40;83.60;;;;;;5052505;28;20046;-50